Time;durP1;ratioP1;P1;durP2;ratioP2;P2;SDS_P1;SDS_P2;PMS_P1;PMS_P2;Temp;Humidity;BMP_temperature;BMP_pressure;BME280_temperature;BME280_humidity;BME280_pressure;Samples;Min_cycle;Max_cycle;Signal;HPM_P1;HPM_P2
2021/04/18 00:01:30;;;;;;;6.70;3.90;;;2.40;99.90;;;;;;5013920;28;20290;-79
2021/04/18 00:03:56;;;;;;;5.50;3.63;;;2.40;99.90;;;;;;5016451;28;20607;-79
2021/04/18 00:06:22;;;;;;;5.27;3.80;;;2.30;99.90;;;;;;5013214;28;20290;-77
2021/04/18 00:08:49;;;;;;;8.63;4.87;;;2.30;99.90;;;;;;5017900;28;20221;-78
2021/04/18 00:11:17;;;;;;;7.40;4.70;;;2.40;99.90;;;;;;5013595;28;20274;-78
2021/04/18 00:13:44;;;;;;;7.83;4.30;;;2.30;99.90;;;;;;5012644;28;20273;-77
2021/04/18 00:16:12;;;;;;;6.03;4.20;;;2.30;99.90;;;;;;5013425;28;20292;-78
2021/04/18 00:18:38;;;;;;;6.33;3.83;;;2.30;99.90;;;;;;5013474;28;20202;-80
2021/04/18 00:21:05;;;;;;;7.27;3.83;;;2.30;99.90;;;;;;5013221;28;20213;-79
2021/04/18 00:23:31;;;;;;;6.70;3.83;;;2.30;99.90;;;;;;5012729;28;20293;-79
2021/04/18 00:25:57;;;;;;;7.30;3.77;;;2.30;99.90;;;;;;5013126;28;20387;-79
2021/04/18 00:28:24;;;;;;;7.83;3.80;;;2.30;99.90;;;;;;5013319;28;20320;-79
2021/04/18 00:30:50;;;;;;;7.33;4.47;;;2.20;99.90;;;;;;5012404;28;20319;-79
2021/04/18 00:33:18;;;;;;;8.17;4.33;;;2.20;99.90;;;;;;5012587;28;20341;-79
2021/04/18 00:35:44;;;;;;;9.13;5.20;;;2.20;99.90;;;;;;5012572;28;20288;-79
2021/04/18 00:38:11;;;;;;;11.47;5.53;;;2.20;99.90;;;;;;5028631;28;20294;-79
2021/04/18 00:40:38;;;;;;;11.27;6.23;;;2.20;99.90;;;;;;5013809;28;20281;-79
2021/04/18 00:43:05;;;;;;;5.97;3.90;;;2.10;99.90;;;;;;5012304;28;20298;-78
2021/04/18 00:45:32;;;;;;;8.37;4.53;;;2.00;99.90;;;;;;5013225;28;20288;-79
2021/04/18 00:47:58;;;;;;;9.03;4.40;;;2.00;99.90;;;;;;5012021;28;20759;-79
2021/04/18 00:50:28;;;;;;;8.97;4.93;;;1.80;99.90;;;;;;5012568;28;20328;-80
2021/04/18 00:52:55;;;;;;;7.73;4.13;;;1.80;99.90;;;;;;5012435;28;20348;-79
2021/04/18 00:55:24;;;;;;;12.33;6.77;;;1.80;99.90;;;;;;5013246;28;20282;-79
2021/04/18 00:57:51;;;;;;;20.40;9.27;;;1.90;99.90;;;;;;5012035;28;20349;-79
2021/04/18 01:00:18;;;;;;;16.37;7.80;;;1.90;99.90;;;;;;5012086;28;20288;-79
2021/04/18 01:02:45;;;;;;;13.77;6.67;;;1.80;99.90;;;;;;5012725;28;20218;-79
2021/04/18 01:05:13;;;;;;;10.00;5.07;;;1.70;99.90;;;;;;5022542;28;20361;-79
2021/04/18 01:07:40;;;;;;;8.73;4.70;;;1.70;99.90;;;;;;5012173;28;20241;-79
2021/04/18 01:10:11;;;;;;;8.00;4.57;;;1.70;99.90;;;;;;5015137;28;20284;-79
2021/04/18 01:12:37;;;;;;;9.80;5.60;;;1.70;99.90;;;;;;5014292;28;20240;-79
2021/04/18 01:15:05;;;;;;;9.93;4.67;;;1.70;99.90;;;;;;5011928;28;20258;-79
2021/04/18 01:17:32;;;;;;;8.23;4.67;;;1.70;99.90;;;;;;5012496;28;20284;-79
2021/04/18 01:19:58;;;;;;;8.27;4.63;;;1.70;99.90;;;;;;5012253;28;20292;-79
2021/04/18 01:22:26;;;;;;;7.30;4.77;;;1.60;99.90;;;;;;5012257;28;20681;-79
2021/04/18 01:24:54;;;;;;;17.53;7.93;;;1.50;99.90;;;;;;5011826;28;20303;-79
2021/04/18 01:27:22;;;;;;;49.70;20.27;;;1.40;99.90;;;;;;5011658;28;20206;-79
2021/04/18 01:29:49;;;;;;;49.37;19.60;;;1.40;99.90;;;;;;5012374;28;20233;-79
2021/04/18 01:32:16;;;;;;;24.07;10.93;;;1.40;99.90;;;;;;5012040;28;20297;-79
2021/04/18 01:34:45;;;;;;;16.60;8.77;;;1.30;99.90;;;;;;5008859;28;20229;-79
2021/04/18 01:37:13;;;;;;;11.83;6.40;;;1.40;99.90;;;;;;5011649;28;20220;-79
2021/04/18 01:39:40;;;;;;;9.67;5.60;;;1.40;99.90;;;;;;5011680;28;20240;-79
2021/04/18 01:42:08;;;;;;;9.53;5.83;;;1.30;99.90;;;;;;5016408;28;20285;-78
2021/04/18 01:44:34;;;;;;;8.93;5.47;;;1.30;99.90;;;;;;5010622;28;20280;-78
2021/04/18 01:47:01;;;;;;;9.57;5.57;;;1.20;99.90;;;;;;5011537;28;20298;-79
2021/04/18 01:49:27;;;;;;;11.07;4.97;;;1.30;99.90;;;;;;5012061;28;20229;-78
2021/04/18 01:51:53;;;;;;;7.57;4.63;;;1.20;99.90;;;;;;5011621;28;20206;-78
2021/04/18 01:54:20;;;;;;;7.07;4.47;;;1.10;99.90;;;;;;5011465;28;20328;-78
2021/04/18 01:56:47;;;;;;;8.17;3.60;;;1.00;99.90;;;;;;5011533;28;20641;-78
2021/04/18 01:59:13;;;;;;;6.03;3.83;;;0.90;99.90;;;;;;5012019;28;20636;-78
2021/04/18 02:01:40;;;;;;;5.00;4.03;;;0.90;99.90;;;;;;5010779;28;20245;-78
2021/04/18 02:04:21;;;;;;;5.50;3.60;;;0.90;99.90;;;;;;5011783;28;20237;-79
2021/04/18 02:06:48;;;;;;;4.43;3.50;;;0.80;99.90;;;;;;5011772;28;20744;-79
2021/04/18 02:09:14;;;;;;;5.93;3.90;;;0.80;99.90;;;;;;5010826;28;20382;-78
2021/04/18 02:11:42;;;;;;;6.47;4.10;;;0.70;99.90;;;;;;5012363;28;20795;-79
2021/04/18 02:14:09;;;;;;;6.00;3.90;;;0.70;99.90;;;;;;5011961;28;20316;-79
2021/04/18 02:16:36;;;;;;;7.47;3.70;;;0.60;99.90;;;;;;5012505;28;20284;-78
2021/04/18 02:19:03;;;;;;;5.90;3.87;;;0.60;99.90;;;;;;5011497;28;20292;-79
2021/04/18 02:21:30;;;;;;;8.37;4.13;;;0.50;99.90;;;;;;5011401;28;20292;-78
2021/04/18 02:23:57;;;;;;;7.53;3.60;;;0.50;99.90;;;;;;5011084;28;20303;-79
2021/04/18 02:26:23;;;;;;;6.60;3.90;;;0.50;99.90;;;;;;5011633;28;20292;-79
2021/04/18 02:28:50;;;;;;;6.07;4.00;;;0.50;99.90;;;;;;5011067;28;20701;-79
2021/04/18 02:31:17;;;;;;;5.60;3.97;;;0.40;99.90;;;;;;5008132;28;20305;-79
2021/04/18 02:33:43;;;;;;;7.13;3.97;;;0.40;99.90;;;;;;5014468;28;20229;-78
2021/04/18 02:36:10;;;;;;;4.73;3.77;;;0.40;99.90;;;;;;5012237;28;20292;-79
2021/04/18 02:38:36;;;;;;;8.93;3.97;;;0.40;99.90;;;;;;5010967;28;20339;-79
2021/04/18 02:41:03;;;;;;;7.73;4.20;;;0.30;99.90;;;;;;5011517;28;20229;-79
2021/04/18 02:43:29;;;;;;;7.50;4.10;;;0.30;99.90;;;;;;5011039;28;20292;-78
2021/04/18 02:45:56;;;;;;;8.30;4.20;;;0.40;99.90;;;;;;5011218;28;20777;-78
2021/04/18 02:48:23;;;;;;;7.77;4.03;;;0.40;99.90;;;;;;5011333;28;20312;-78
2021/04/18 02:50:49;;;;;;;5.77;4.10;;;0.40;99.90;;;;;;5011660;28;20201;-78
2021/04/18 02:53:16;;;;;;;7.17;4.00;;;0.50;99.90;;;;;;5011331;28;20701;-79
2021/04/18 02:55:42;;;;;;;6.37;4.10;;;0.50;99.90;;;;;;5010666;28;20209;-78
2021/04/18 02:58:09;;;;;;;8.47;4.13;;;0.60;99.90;;;;;;5012256;28;20704;-78
2021/04/18 03:00:35;;;;;;;7.67;4.37;;;0.60;99.90;;;;;;5010969;28;20240;-79
2021/04/18 03:03:02;;;;;;;6.23;4.20;;;0.60;99.90;;;;;;5011958;28;20288;-78
2021/04/18 03:05:29;;;;;;;6.17;4.10;;;0.60;99.90;;;;;;5010494;28;20292;-78
2021/04/18 03:07:55;;;;;;;7.97;4.03;;;0.60;99.90;;;;;;5015340;28;20311;-78
2021/04/18 03:10:22;;;;;;;5.77;4.30;;;0.50;99.90;;;;;;5017224;28;20299;-79
2021/04/18 03:12:48;;;;;;;7.53;4.50;;;0.60;99.90;;;;;;5012234;28;20300;-78
2021/04/18 03:15:15;;;;;;;7.77;4.10;;;0.50;99.90;;;;;;5014569;28;20288;-78
2021/04/18 03:17:42;;;;;;;6.93;3.90;;;0.50;99.90;;;;;;5014349;28;20863;-78
2021/04/18 03:20:10;;;;;;;7.03;4.23;;;0.50;99.90;;;;;;5014700;28;20568;-78
2021/04/18 03:22:37;;;;;;;7.93;4.50;;;0.40;99.90;;;;;;5018410;28;20216;-78
2021/04/18 03:25:04;;;;;;;6.47;4.10;;;0.30;99.90;;;;;;5016254;28;20288;-78
2021/04/18 03:27:31;;;;;;;9.23;4.17;;;0.30;99.90;;;;;;5014349;28;20344;-79
2021/04/18 03:29:57;;;;;;;5.87;4.17;;;0.20;99.90;;;;;;5013999;28;20713;-78
2021/04/18 03:32:23;;;;;;;6.63;4.13;;;0.20;99.90;;;;;;5014269;28;20577;-78
2021/04/18 03:34:50;;;;;;;7.27;4.67;;;0.10;99.90;;;;;;5014038;28;20295;-78
2021/04/18 03:37:17;;;;;;;7.33;4.43;;;0.00;99.90;;;;;;5014289;28;20288;-78
2021/04/18 03:39:44;;;;;;;7.87;4.33;;;0.00;99.90;;;;;;5020229;28;20301;-78
2021/04/18 03:42:11;;;;;;;7.27;4.60;;;0.00;99.90;;;;;;5019995;28;20239;-78
2021/04/18 03:44:37;;;;;;;6.83;4.27;;;0.10;99.90;;;;;;5014096;28;20617;-78
2021/04/18 03:47:04;;;;;;;7.93;4.47;;;0.00;99.90;;;;;;5028670;28;20300;-78
2021/04/18 03:49:30;;;;;;;6.80;4.43;;;0.00;99.90;;;;;;5021017;28;20418;-78
2021/04/18 03:51:57;;;;;;;7.87;4.50;;;0.10;99.90;;;;;;5013153;28;20233;-78
2021/04/18 03:54:23;;;;;;;8.97;4.77;;;0.00;99.90;;;;;;5014127;28;20255;-78
2021/04/18 03:56:51;;;;;;;9.27;4.57;;;0.10;99.90;;;;;;5018164;28;20196;-79
2021/04/18 03:59:18;;;;;;;7.27;4.63;;;0.10;99.90;;;;;;5013371;28;20616;-78
2021/04/18 04:01:45;;;;;;;8.10;4.30;;;0.10;99.90;;;;;;5013607;28;20308;-78
2021/04/18 04:04:11;;;;;;;9.67;4.80;;;0.00;99.90;;;;;;5013378;28;20296;-78
2021/04/18 04:06:38;;;;;;;8.73;4.70;;;0.00;99.90;;;;;;5022083;28;20280;-78
2021/04/18 04:09:05;;;;;;;8.13;4.83;;;0.00;99.90;;;;;;5013226;28;20316;-78
2021/04/18 04:11:32;;;;;;;9.17;5.03;;;0.00;99.90;;;;;;5013611;28;20316;-78
2021/04/18 04:13:59;;;;;;;8.07;4.70;;;-0.10;99.90;;;;;;5019861;28;20305;-78
2021/04/18 04:16:26;;;;;;;10.43;4.90;;;-0.10;99.90;;;;;;5013122;28;20233;-78
2021/04/18 04:18:52;;;;;;;8.60;4.57;;;-0.10;99.90;;;;;;5013023;28;20232;-78
2021/04/18 04:21:19;;;;;;;7.90;4.43;;;-0.10;99.90;;;;;;5013042;28;20212;-78
2021/04/18 04:23:45;;;;;;;7.40;4.23;;;-0.20;99.90;;;;;;5012904;28;20304;-78
2021/04/18 04:26:12;;;;;;;8.13;4.30;;;-0.10;99.90;;;;;;5013051;28;20275;-78
2021/04/18 04:28:38;;;;;;;8.87;4.43;;;-0.20;99.90;;;;;;5013395;28;20233;-78
2021/04/18 04:31:05;;;;;;;7.10;4.20;;;-0.20;99.90;;;;;;5017210;28;20280;-78
2021/04/18 04:33:37;;;;;;;8.50;4.83;;;-0.20;99.90;;;;;;5013298;28;20383;-78
2021/04/18 04:36:04;;;;;;;10.27;4.60;;;-0.10;99.90;;;;;;5012800;28;20197;-77
2021/04/18 04:38:31;;;;;;;8.40;4.67;;;-0.10;99.90;;;;;;5015672;28;20280;-77
2021/04/18 04:40:57;;;;;;;6.90;4.27;;;-0.20;99.90;;;;;;5012579;28;20217;-78
2021/04/18 04:43:24;;;;;;;6.40;4.57;;;-0.30;99.90;;;;;;5016182;28;20736;-78
2021/04/18 04:45:50;;;;;;;7.57;4.67;;;-0.30;99.90;;;;;;5012534;28;20256;-78
2021/04/18 04:48:17;;;;;;;8.87;4.60;;;-0.40;99.90;;;;;;5012613;28;20314;-78
2021/04/18 04:50:44;;;;;;;9.63;4.90;;;-0.30;99.90;;;;;;5013223;28;20225;-78
2021/04/18 04:53:10;;;;;;;8.20;4.50;;;-0.30;99.90;;;;;;5015968;28;20647;-78
2021/04/18 04:55:36;;;;;;;10.43;5.00;;;-0.30;99.90;;;;;;5012377;28;20292;-78
2021/04/18 04:58:03;;;;;;;8.87;4.87;;;-0.30;99.90;;;;;;5012443;28;20209;-78
2021/04/18 05:00:29;;;;;;;7.17;4.83;;;-0.30;99.90;;;;;;5013288;28;20280;-78
2021/04/18 05:02:56;;;;;;;10.13;4.80;;;-0.30;99.90;;;;;;5012035;28;20307;-78
2021/04/18 05:05:23;;;;;;;8.17;4.73;;;-0.20;99.90;;;;;;5012340;28;20300;-78
2021/04/18 05:07:49;;;;;;;8.03;4.53;;;-0.20;99.90;;;;;;5017765;28;20764;-78
2021/04/18 05:10:16;;;;;;;7.20;4.57;;;-0.20;99.90;;;;;;5024438;28;20232;-78
2021/04/18 05:12:42;;;;;;;9.03;5.10;;;-0.30;99.90;;;;;;5011767;28;20320;-78
2021/04/18 05:15:10;;;;;;;7.77;4.27;;;-0.30;99.90;;;;;;5012116;28;20303;-79
2021/04/18 05:17:36;;;;;;;8.27;4.63;;;-0.30;99.90;;;;;;5012517;28;20320;-78
2021/04/18 05:20:04;;;;;;;7.87;4.67;;;-0.40;99.90;;;;;;5011975;28;20284;-78
2021/04/18 05:22:31;;;;;;;7.83;4.63;;;-0.40;99.90;;;;;;5012910;28;20240;-78
2021/04/18 05:24:57;;;;;;;8.27;4.93;;;-0.40;99.90;;;;;;5011738;28;20247;-78
2021/04/18 05:27:24;;;;;;;11.13;4.70;;;-0.30;99.90;;;;;;5012378;28;20748;-78
2021/04/18 05:29:52;;;;;;;10.70;5.10;;;-0.30;99.90;;;;;;5011852;28;20319;-78
2021/04/18 05:32:18;;;;;;;6.83;4.80;;;-0.20;99.90;;;;;;5011853;28;20208;-78
2021/04/18 05:34:45;;;;;;;8.23;4.83;;;-0.20;99.90;;;;;;5011517;28;20300;-78
2021/04/18 05:37:11;;;;;;;13.50;5.33;;;0.00;99.90;;;;;;5011852;28;20323;-78
2021/04/18 05:39:38;;;;;;;13.47;4.90;;;0.10;99.90;;;;;;5014191;28;20580;-78
2021/04/18 05:42:05;;;;;;;10.47;5.23;;;0.20;99.90;;;;;;5015876;28;20292;-78
2021/04/18 05:44:32;;;;;;;10.73;5.17;;;0.30;99.90;;;;;;5011861;28;20291;-78
2021/04/18 05:46:58;;;;;;;10.67;5.83;;;0.30;99.90;;;;;;5011691;28;20686;-78
2021/04/18 05:49:24;;;;;;;10.63;5.70;;;0.40;99.90;;;;;;5011260;28;20312;-78
2021/04/18 05:51:51;;;;;;;11.27;5.63;;;0.40;99.90;;;;;;5012043;28;20237;-78
2021/04/18 05:54:17;;;;;;;9.00;5.40;;;0.50;99.90;;;;;;5011994;28;20283;-78
2021/04/18 05:56:44;;;;;;;9.50;5.23;;;0.60;99.90;;;;;;5011578;28;20308;-78
2021/04/18 05:59:11;;;;;;;10.83;4.90;;;1.00;99.90;;;;;;5011560;28;20648;-78
2021/04/18 06:01:37;;;;;;;6.80;4.30;;;1.50;99.90;;;;;;5011811;28;20309;-78
2021/04/18 06:04:04;;;;;;;7.33;4.90;;;1.70;99.90;;;;;;5012296;28;20295;-78
2021/04/18 06:06:30;;;;;;;6.67;4.23;;;1.90;99.90;;;;;;5012283;28;20292;-78
2021/04/18 06:08:57;;;;;;;7.27;4.40;;;2.20;99.90;;;;;;5012245;28;20322;-78
2021/04/18 06:11:23;;;;;;;6.63;4.17;;;2.70;99.90;;;;;;5011229;28;20757;-78
2021/04/18 06:13:50;;;;;;;4.73;4.07;;;3.30;99.90;;;;;;5012053;28;20338;-78
2021/04/18 06:16:17;;;;;;;6.50;4.00;;;3.80;99.90;;;;;;5010846;28;20300;-78
2021/04/18 06:18:44;;;;;;;5.80;3.83;;;4.50;99.90;;;;;;5011796;28;20229;-79
2021/04/18 06:21:10;;;;;;;5.83;4.20;;;5.10;99.90;;;;;;5011669;28;20234;-79
2021/04/18 06:23:37;;;;;;;6.37;4.10;;;5.70;99.90;;;;;;5010916;28;20242;-79
2021/04/18 06:26:03;;;;;;;7.63;4.63;;;6.20;99.90;;;;;;5011650;28;20291;-79
2021/04/18 06:28:30;;;;;;;8.00;4.10;;;6.40;99.90;;;;;;5011280;28;20392;-78
2021/04/18 06:30:57;;;;;;;8.73;4.60;;;6.70;99.90;;;;;;5011387;28;20213;-79
2021/04/18 06:33:24;;;;;;;7.60;4.37;;;7.00;99.90;;;;;;5011012;28;20311;-79
2021/04/18 06:35:50;;;;;;;8.53;4.77;;;7.60;99.90;;;;;;5011633;28;20235;-79
2021/04/18 06:38:17;;;;;;;10.77;4.87;;;8.20;99.90;;;;;;5011564;28;20338;-79
2021/04/18 06:40:43;;;;;;;8.63;4.67;;;8.10;99.90;;;;;;5015005;28;20285;-79
2021/04/18 06:43:12;;;;;;;9.03;4.50;;;8.30;99.90;;;;;;5013177;28;20232;-79
2021/04/18 06:45:39;;;;;;;7.87;4.80;;;9.50;99.90;;;;;;5011114;28;20210;-79
2021/04/18 06:48:12;;;;;;;7.13;4.43;;;9.70;99.90;;;;;;5015323;28;20301;-79
2021/04/18 06:50:38;;;;;;;6.73;4.30;;;9.70;99.90;;;;;;5014369;28;20295;-79
2021/04/18 06:53:04;;;;;;;7.73;4.57;;;9.30;99.90;;;;;;5015110;28;20232;-81
2021/04/18 06:55:32;;;;;;;7.60;4.67;;;9.40;99.90;;;;;;5014824;28;20249;-81
2021/04/18 06:57:59;;;;;;;6.33;4.10;;;10.10;99.90;;;;;;5021450;28;20732;-81
2021/04/18 07:00:26;;;;;;;7.53;4.50;;;10.40;99.90;;;;;;5015409;28;20284;-83
2021/04/18 07:02:52;;;;;;;6.93;4.40;;;10.70;99.90;;;;;;5015412;28;20363;-83
2021/04/18 07:05:22;;;;;;;9.00;4.67;;;10.40;99.90;;;;;;5016087;28;20208;-83
2021/04/18 07:07:49;;;;;;;7.73;4.80;;;11.00;99.90;;;;;;5014468;28;20554;-82
2021/04/18 07:10:27;;;;;;;7.60;4.30;;;11.40;99.90;;;;;;5015333;28;20354;-82
2021/04/18 07:12:54;;;;;;;8.97;4.63;;;12.20;99.90;;;;;;5006939;28;20260;-82
2021/04/18 07:15:37;;;;;;;7.37;4.47;;;12.50;99.90;;;;;;5016073;28;20204;-82
2021/04/18 07:18:04;;;;;;;6.90;4.40;;;12.50;99.90;;;;;;5012462;28;20204;-82
2021/04/18 07:20:32;;;;;;;7.53;4.70;;;12.30;99.90;;;;;;5015623;28;20201;-82
2021/04/18 07:23:25;;;;;;;7.20;4.77;;;12.50;99.90;;;;;;5014866;28;20291;-79
2021/04/18 07:25:52;;;;;;;7.13;4.83;;;13.00;99.90;;;;;;5014084;28;20267;-79
2021/04/18 07:28:23;;;;;;;8.13;4.78;;;12.90;99.90;;;;;;5013562;28;20220;-80
2021/04/18 07:34:47;;;;;;;8.82;4.60;;;13.30;99.90;;;;;;5008220;28;20201;-79
2021/04/18 07:37:16;;;;;;;6.97;4.28;;;14.20;99.90;;;;;;5014331;28;20216;-79
2021/04/18 07:39:48;;;;;;;7.07;4.38;;;14.50;99.90;;;;;;5016306;28;20193;-78
2021/04/18 07:42:37;;;;;;;7.50;4.40;;;14.60;99.90;;;;;;4995042;28;20206;-79
2021/04/18 07:45:07;;;;;;;7.22;4.20;;;13.20;99.90;;;;;;5011445;28;20212;-80
2021/04/18 07:47:35;;;;;;;7.80;4.40;;;12.70;99.90;;;;;;5021475;28;20288;-79
2021/04/18 07:50:24;;;;;;;5.80;3.80;;;13.20;99.90;;;;;;5013638;28;20267;-80
2021/04/18 07:52:52;;;;;;;7.30;3.30;;;12.20;99.90;;;;;;4996296;28;20205;-80
2021/04/18 07:55:20;;;;;;;5.73;3.80;;;12.50;99.90;;;;;;5013593;28;20294;-79
2021/04/18 07:57:46;;;;;;;7.10;3.47;;;13.40;99.90;;;;;;5012687;28;20201;-80
2021/04/18 08:00:15;;;;;;;8.38;4.53;;;13.70;99.90;;;;;;5025499;28;20196;-79
2021/04/18 08:02:46;;;;;;;6.03;3.83;;;12.20;99.90;;;;;;5014306;28;20205;-80
2021/04/18 08:09:34;;;;;;;9.43;3.70;;;11.80;99.90;;;;;;4959919;28;20232;-80
2021/04/18 08:19:36;;;;;;;6.03;2.73;;;12.80;99.90;;;;;;4877285;29;20273;-80
2021/04/18 08:23:04;;;;;;;5.23;3.10;;;12.50;99.90;;;;;;4877371;29;20233;-79
2021/04/18 08:26:21;;;;;;;5.47;3.10;;;12.60;99.90;;;;;;4836500;29;20305;-79
2021/04/18 08:29:13;;;;;;;7.13;3.17;;;13.50;99.90;;;;;;4846111;29;20278;-80
2021/04/18 08:31:57;;;;;;;6.00;2.80;;;13.80;99.90;;;;;;4838207;29;20290;-80
2021/04/18 08:34:26;;;;;;;5.47;2.73;;;13.50;99.90;;;;;;4839930;29;20242;-79
2021/04/18 08:36:54;;;;;;;4.90;2.87;;;13.70;99.90;;;;;;4840013;29;20305;-79
2021/04/18 08:39:23;;;;;;;7.70;2.93;;;13.30;99.90;;;;;;4841748;29;20346;-81
2021/04/18 08:41:52;;;;;;;6.33;3.07;;;13.40;99.90;;;;;;4847247;29;20297;-79
2021/04/18 08:44:20;;;;;;;4.77;3.00;;;13.90;99.90;;;;;;4858033;29;20690;-80
2021/04/18 08:46:48;;;;;;;5.93;2.60;;;14.00;99.90;;;;;;4862965;29;20234;-80
2021/04/18 08:49:28;;;;;;;4.57;2.60;;;13.90;99.90;;;;;;4863976;29;20316;-79
2021/04/18 08:51:55;;;;;;;6.27;3.00;;;14.50;99.90;;;;;;4858084;29;20293;-84
2021/04/18 08:54:27;;;;;;;6.20;3.00;;;14.30;99.90;;;;;;4859800;29;20286;-84
2021/04/18 08:56:57;;;;;;;5.37;2.47;;;14.50;99.90;;;;;;4925501;29;20231;-83
2021/04/18 08:59:24;;;;;;;6.63;2.50;;;15.10;99.90;;;;;;4937994;29;20235;-81
2021/04/18 09:01:59;;;;;;;6.27;2.80;;;16.60;99.50;;;;;;4975389;28;20203;-82
2021/04/18 09:04:26;;;;;;;3.20;2.27;;;14.80;98.40;;;;;;5012993;28;20201;-84
2021/04/18 09:06:53;;;;;;;4.87;2.70;;;15.10;99.90;;;;;;5012616;28;20902;-81
2021/04/18 09:09:20;;;;;;;4.97;2.40;;;15.70;96.90;;;;;;5018579;28;20306;-81
2021/04/18 09:11:47;;;;;;;4.63;2.70;;;16.60;97.50;;;;;;5017574;28;20740;-81
2021/04/18 09:14:17;;;;;;;4.83;2.70;;;16.20;94.80;;;;;;5014886;28;20274;-80
2021/04/18 09:16:44;;;;;;;5.87;2.63;;;15.00;97.00;;;;;;5017067;28;20696;-81
2021/04/18 09:19:29;;;;;;;4.07;2.00;;;15.90;98.80;;;;;;5028421;28;20220;-80
2021/04/18 09:22:04;;;;;;;2.97;2.10;;;16.40;94.10;;;;;;5017603;28;20232;-80
2021/04/18 09:24:32;;;;;;;4.97;2.30;;;15.00;93.90;;;;;;5017180;28;20224;-84
2021/04/18 09:27:05;;;;;;;7.20;2.53;;;14.50;98.50;;;;;;5017810;28;20279;-84
2021/04/18 09:29:34;;;;;;;2.97;2.20;;;16.00;96.60;;;;;;5023939;28;20220;-81
2021/04/18 09:32:06;;;;;;;4.30;2.43;;;15.60;93.80;;;;;;5021044;28;20259;-84
2021/04/18 09:34:34;;;;;;;5.60;2.70;;;15.90;94.80;;;;;;5022610;28;20794;-84
2021/04/18 09:37:06;;;;;;;5.13;2.67;;;16.20;93.50;;;;;;5020646;28;20736;-80
2021/04/18 09:39:39;;;;;;;4.72;2.42;;;16.30;95.00;;;;;;5018179;28;20192;-80
2021/04/18 09:42:08;;;;;;;3.90;2.40;;;15.60;98.20;;;;;;5025326;28;20207;-82
2021/04/18 09:44:39;;;;;;;3.90;2.00;;;16.00;95.10;;;;;;5015888;28;20197;-82
2021/04/18 09:47:18;;;;;;;4.30;2.42;;;16.50;93.70;;;;;;5025095;28;20204;-82
2021/04/18 09:49:50;;;;;;;5.07;2.20;;;16.00;94.20;;;;;;5026973;28;20296;-82
2021/04/18 09:52:29;;;;;;;3.73;2.60;;;15.70;93.90;;;;;;5019655;28;20280;-82
2021/04/18 09:55:06;;;;;;;4.68;2.65;;;15.80;94.30;;;;;;5023426;28;20284;-78
2021/04/18 09:57:45;;;;;;;4.75;2.63;;;16.90;94.40;;;;;;5021653;28;20652;-78
2021/04/18 10:00:19;;;;;;;4.15;2.40;;;17.40;91.40;;;;;;5011969;28;20205;-79
2021/04/18 10:03:08;;;;;;;4.78;2.28;;;17.50;90.10;;;;;;5015738;28;20203;-79
2021/04/18 10:05:55;;;;;;;5.07;2.70;;;17.50;89.10;;;;;;5011989;28;20201;-80
2021/04/18 10:08:23;;;;;;;4.07;2.30;;;18.00;90.30;;;;;;5025099;28;20204;-82
2021/04/18 10:10:52;;;;;;;5.32;2.63;;;17.90;92.30;;;;;;5013980;28;20582;-81
2021/04/18 10:13:39;;;;;;;3.53;2.35;;;15.90;91.60;;;;;;5013386;28;20229;-78
2021/04/18 10:16:07;;;;;;;4.17;2.50;;;14.40;93.80;;;;;;5010193;28;20551;-78
2021/04/18 10:18:35;;;;;;;6.37;2.40;;;14.50;95.60;;;;;;5016674;28;20201;-81
2021/04/18 10:21:20;;;;;;;3.30;2.10;;;15.30;94.20;;;;;;5018478;28;20295;-81
2021/04/18 10:23:48;;;;;;;6.05;2.58;;;16.60;90.80;;;;;;5018496;28;20965;-80
2021/04/18 10:26:16;;;;;;;3.75;2.40;;;16.40;94.10;;;;;;5023749;28;20625;-79
2021/04/18 10:28:43;;;;;;;5.82;2.58;;;16.30;93.10;;;;;;5017057;28;20231;-80
2021/04/18 10:31:12;;;;;;;4.50;2.65;;;16.80;93.00;;;;;;5023121;28;20291;-80
2021/04/18 10:33:38;;;;;;;8.77;4.45;;;16.80;95.20;;;;;;5031486;28;20356;-80
2021/04/18 10:36:05;;;;;;;6.35;3.35;;;17.60;92.80;;;;;;5021936;28;20232;-77
2021/04/18 10:38:32;;;;;;;7.90;4.65;;;17.70;91.80;;;;;;5032095;28;20243;-77
2021/04/18 10:40:58;;;;;;;4.68;2.47;;;18.50;92.40;;;;;;5014885;28;20281;-78
2021/04/18 10:43:25;;;;;;;3.55;2.72;;;17.40;86.50;;;;;;5019638;28;20229;-78
2021/04/18 10:45:51;;;;;;;3.70;2.40;;;17.90;91.80;;;;;;5030052;28;20228;-79
2021/04/18 10:48:19;;;;;;;4.20;2.47;;;18.40;91.40;;;;;;5014410;28;20284;-78
2021/04/18 10:50:46;;;;;;;5.63;2.70;;;18.10;89.60;;;;;;5021065;28;20311;-78
2021/04/18 10:53:12;;;;;;;5.03;2.92;;;18.10;90.20;;;;;;5024790;28;20237;-78
2021/04/18 10:55:40;;;;;;;4.95;2.63;;;19.70;87.40;;;;;;5014024;28;20684;-78
2021/04/18 10:58:08;;;;;;;4.18;2.40;;;19.10;83.50;;;;;;5025210;28;20700;-78
2021/04/18 11:00:35;;;;;;;4.93;2.90;;;19.00;83.20;;;;;;5019981;28;20635;-79
2021/04/18 11:03:01;;;;;;;4.90;2.72;;;18.00;86.70;;;;;;5021111;28;20280;-79
2021/04/18 11:05:29;;;;;;;4.68;3.20;;;18.20;90.80;;;;;;5016570;28;20244;-79
2021/04/18 11:07:55;;;;;;;4.53;2.85;;;18.80;89.30;;;;;;5014497;28;20280;-78
2021/04/18 11:10:21;;;;;;;4.53;2.55;;;19.60;85.60;;;;;;5024265;28;20723;-78
2021/04/18 11:12:48;;;;;;;4.38;2.65;;;19.30;84.30;;;;;;5025420;28;20263;-77
2021/04/18 11:15:14;;;;;;;5.13;3.00;;;17.80;83.40;;;;;;5002758;28;20278;-80
2021/04/18 11:17:41;;;;;;;4.85;3.03;;;18.00;87.70;;;;;;5017716;28;20576;-83
2021/04/18 11:20:10;;;;;;;4.53;2.90;;;18.70;90.40;;;;;;5028272;28;20224;-80
2021/04/18 11:22:38;;;;;;;5.63;3.30;;;17.60;89.20;;;;;;5027259;28;20326;-80
2021/04/18 11:25:06;;;;;;;5.68;3.88;;;17.30;87.90;;;;;;5016973;28;20208;-80
2021/04/18 11:27:33;;;;;;;5.25;3.25;;;18.40;89.80;;;;;;5015031;28;20216;-82
2021/04/18 11:30:00;;;;;;;5.57;3.30;;;19.20;86.50;;;;;;5019445;28;20252;-83
2021/04/18 11:32:26;;;;;;;5.75;2.80;;;18.30;86.40;;;;;;5023697;28;20794;-83
2021/04/18 11:34:52;;;;;;;3.83;2.85;;;17.90;81.20;;;;;;5030617;28;20270;-83
2021/04/18 11:37:19;;;;;;;5.57;2.92;;;17.10;83.60;;;;;;5021320;28;20283;-81
2021/04/18 11:39:46;;;;;;;3.58;2.30;;;17.20;89.40;;;;;;5015150;28;20279;-82
2021/04/18 11:42:14;;;;;;;4.57;2.67;;;17.70;86.40;;;;;;5030099;28;20232;-83
2021/04/18 11:44:40;;;;;;;4.05;2.28;;;18.90;90.40;;;;;;5014537;28;20236;-84
2021/04/18 11:47:07;;;;;;;5.57;3.17;;;19.10;87.20;;;;;;5016286;28;20204;-83
2021/04/18 11:49:33;;;;;;;5.05;2.97;;;18.70;84.50;;;;;;5024756;28;20295;-83
2021/04/18 11:52:00;;;;;;;5.22;2.85;;;18.60;89.00;;;;;;5016983;28;20640;-83
2021/04/18 11:54:26;;;;;;;5.00;3.97;;;18.50;86.70;;;;;;5015459;28;20288;-82
2021/04/18 11:56:53;;;;;;;5.70;2.83;;;19.10;88.20;;;;;;5024755;28;20189;-82
2021/04/18 11:59:20;;;;;;;4.10;2.83;;;19.80;83.70;;;;;;5020875;28;20210;-82
2021/04/18 12:01:46;;;;;;;4.10;2.65;;;19.60;83.00;;;;;;5031284;28;20704;-83
2021/04/18 12:04:13;;;;;;;5.72;2.90;;;19.10;85.70;;;;;;5018979;28;20672;-81
2021/04/18 12:06:39;;;;;;;4.03;2.50;;;18.80;88.90;;;;;;5030841;28;20323;-80
2021/04/18 12:09:06;;;;;;;5.30;2.72;;;19.50;82.10;;;;;;5033344;28;20305;-82
2021/04/18 12:11:32;;;;;;;5.28;2.58;;;18.60;83.40;;;;;;5027527;28;20283;-82
2021/04/18 12:14:01;;;;;;;4.32;2.63;;;19.00;85.40;;;;;;4999224;28;20228;-82
2021/04/18 12:16:27;;;;;;;5.07;2.70;;;19.70;87.60;;;;;;5027055;28;20204;-77
2021/04/18 12:18:53;;;;;;;6.07;3.10;;;19.30;81.00;;;;;;5033342;28;20882;-84
2021/04/18 12:21:21;;;;;;;8.77;5.80;;;18.20;80.90;;;;;;5026278;28;20291;-84
2021/04/18 12:23:47;;;;;;;5.50;3.40;;;18.80;81.30;;;;;;5030929;28;20208;-85
2021/04/18 12:26:13;;;;;;;4.43;2.70;;;17.90;82.80;;;;;;5013806;28;20204;-84
2021/04/18 12:28:40;;;;;;;4.25;2.88;;;17.20;89.30;;;;;;5021942;28;20236;-83
2021/04/18 12:31:08;;;;;;;4.55;2.90;;;18.20;91.10;;;;;;5021595;28;20292;-84
2021/04/18 12:33:34;;;;;;;4.72;2.83;;;18.80;90.80;;;;;;5015275;28;20209;-84
2021/04/18 12:36:01;;;;;;;4.03;2.85;;;18.70;83.20;;;;;;5017779;28;20684;-83
2021/04/18 12:38:27;;;;;;;3.17;2.28;;;19.10;79.80;;;;;;5021125;28;20206;-84
2021/04/18 12:40:54;;;;;;;4.20;2.65;;;17.60;83.60;;;;;;5022067;28;20690;-84
2021/04/18 12:43:20;;;;;;;4.70;2.85;;;17.40;84.20;;;;;;5023576;28;20197;-83
2021/04/18 12:45:46;;;;;;;5.25;2.70;;;17.30;84.70;;;;;;5023955;28;20261;-84
2021/04/18 12:48:14;;;;;;;5.73;2.70;;;17.90;83.90;;;;;;5017954;28;20200;-83
2021/04/18 12:50:41;;;;;;;4.17;2.83;;;18.50;89.30;;;;;;4999461;28;20213;-83
2021/04/18 12:53:09;;;;;;;4.95;2.78;;;19.10;79.90;;;;;;5013199;28;20232;-84
2021/04/18 12:55:36;;;;;;;5.85;3.15;;;19.50;80.90;;;;;;5013560;28;20284;-84
2021/04/18 12:58:02;;;;;;;6.25;3.30;;;18.30;82.90;;;;;;5026093;28;20948;-83
2021/04/18 13:00:31;;;;;;;6.85;2.85;;;18.90;83.80;;;;;;5034267;28;20203;-83
2021/04/18 13:02:58;;;;;;;5.82;2.72;;;18.80;89.20;;;;;;5026406;28;20355;-84
2021/04/18 13:05:25;;;;;;;8.88;3.15;;;18.40;87.90;;;;;;5024918;28;20229;-84
2021/04/18 13:07:52;;;;;;;4.97;2.97;;;17.60;90.70;;;;;;5032955;28;20192;-84
2021/04/18 13:10:19;;;;;;;4.57;3.00;;;18.00;88.80;;;;;;5032951;28;20227;-84
2021/04/18 13:12:49;;;;;;;5.13;2.67;;;17.70;83.10;;;;;;5029135;28;20316;-84